createdAt,value
2022-08-09T00:00:12.002Z,16.20
2022-08-09T00:02:42.942Z,16.20
2022-08-09T00:06:19.300Z,16.20
2022-08-09T00:08:11.145Z,16.10
2022-08-09T00:10:40.782Z,16.10
2022-08-09T00:13:16.707Z,16.10
2022-08-09T00:15:58.066Z,16.00
2022-08-09T00:18:29.034Z,16.00
2022-08-09T00:20:56.032Z,15.90
2022-08-09T00:23:55.884Z,15.90
2022-08-09T00:26:11.322Z,15.90
2022-08-09T00:28:39.634Z,15.90
2022-08-09T00:31:30.580Z,15.90
2022-08-09T00:33:55.224Z,15.90
2022-08-09T00:36:29.577Z,15.80
2022-08-09T00:38:58.545Z,15.70
2022-08-09T00:44:17.020Z,15.70
2022-08-09T00:44:25.998Z,15.70
2022-08-09T00:47:05.533Z,15.60
2022-08-09T00:49:36.972Z,15.60
2022-08-09T00:52:17.793Z,15.60
2022-08-09T00:54:45.724Z,15.60
2022-08-09T00:57:13.696Z,15.50
2022-08-09T00:59:52.731Z,15.50
2022-08-09T01:02:24.107Z,15.40
2022-08-09T01:05:54.025Z,15.40
2022-08-09T01:08:49.400Z,15.50
2022-08-09T01:11:37.590Z,15.50
2022-08-09T01:14:35.163Z,15.40
2022-08-09T01:17:11.677Z,15.40
2022-08-09T01:20:01.795Z,15.40
2022-08-09T01:22:41.530Z,15.30
2022-08-09T01:25:25.259Z,15.30
2022-08-09T01:27:57.078Z,15.40
2022-08-09T01:30:35.827Z,15.30
2022-08-09T01:33:18.287Z,15.30
2022-08-09T01:36:01.568Z,15.20
2022-08-09T01:38:31.384Z,15.20
2022-08-09T01:41:26.046Z,15.20
2022-08-09T01:43:58.301Z,15.20
2022-08-09T01:46:31.643Z,15.20
2022-08-09T01:49:09.999Z,15.20
2022-08-09T01:51:42.684Z,15.20
2022-08-09T01:54:13.683Z,15.10
2022-08-09T01:56:47.185Z,15.00
2022-08-09T01:59:21.074Z,15.00
2022-08-09T02:02:00.359Z,15.00
2022-08-09T02:04:30.224Z,15.00
2022-08-09T02:07:17.862Z,14.90
2022-08-09T02:10:03.989Z,15.00
2022-08-09T02:12:35.188Z,15.00
2022-08-09T02:15:06.199Z,15.00
2022-08-09T02:18:00.251Z,15.00
2022-08-09T02:20:25.350Z,15.00
2022-08-09T02:22:53.595Z,15.00
2022-08-09T02:25:42.174Z,14.90
2022-08-09T02:28:20.310Z,14.90
2022-08-09T02:30:54.792Z,14.90
2022-08-09T02:33:38.187Z,14.90
2022-08-09T02:36:21.020Z,14.80
2022-08-09T02:38:51.826Z,14.90
2022-08-09T02:41:32.767Z,14.80
2022-08-09T02:44:13.803Z,14.80
2022-08-09T02:46:55.367Z,14.90
2022-08-09T02:49:38.348Z,14.90
2022-08-09T02:52:07.861Z,14.90
2022-08-09T02:54:36.867Z,14.90
2022-08-09T02:57:23.453Z,14.90
2022-08-09T03:00:21.279Z,14.80
2022-08-09T03:02:58.721Z,14.80
2022-08-09T03:05:29.167Z,14.80
2022-08-09T03:07:56.569Z,14.70
2022-08-09T03:10:26.120Z,14.70
2022-08-09T03:12:54.830Z,14.70
2022-08-09T03:15:23.663Z,14.70
2022-08-09T03:17:53.801Z,14.70
2022-08-09T03:20:26.159Z,14.60
2022-08-09T03:23:06.514Z,14.70
2022-08-09T03:25:58.693Z,14.60
2022-08-09T03:28:31.126Z,14.60
2022-08-09T03:30:59.286Z,14.50
2022-08-09T03:33:53.498Z,14.50
2022-08-09T03:36:19.414Z,14.50
2022-08-09T03:38:47.978Z,14.50
2022-08-09T03:41:18.545Z,14.50
2022-08-09T03:44:03.169Z,14.40
2022-08-09T03:46:34.296Z,14.40
2022-08-09T03:49:04.377Z,14.40
2022-08-09T03:51:44.025Z,14.40
2022-08-09T03:54:29.316Z,14.40
2022-08-09T03:56:59.208Z,14.40
2022-08-09T03:59:53.214Z,14.50
2022-08-09T04:02:14.535Z,14.50
2022-08-09T04:04:45.581Z,14.50
2022-08-09T04:07:14.470Z,14.50
2022-08-09T04:09:48.234Z,14.50
2022-08-09T04:12:36.145Z,14.40
2022-08-09T04:15:11.657Z,14.40
2022-08-09T04:17:50.582Z,14.40
2022-08-09T04:20:18.933Z,14.50
2022-08-09T04:22:46.661Z,14.40
2022-08-09T04:25:13.667Z,14.40
2022-08-09T04:27:41.743Z,14.40
2022-08-09T04:30:20.833Z,14.40
2022-08-09T04:32:50.824Z,14.50
2022-08-09T04:35:18.282Z,14.60
2022-08-09T04:37:49.782Z,14.60
2022-08-09T04:40:29.125Z,14.70
2022-08-09T04:43:03.838Z,14.80
2022-08-09T04:45:36.156Z,14.80
2022-08-09T04:48:19.021Z,14.80
2022-08-09T04:50:46.543Z,15.00
2022-08-09T04:53:17.010Z,15.00
2022-08-09T04:55:58.645Z,15.00
2022-08-09T04:58:27.296Z,15.10
2022-08-09T05:00:55.286Z,15.20
2022-08-09T05:03:42.817Z,15.20
2022-08-09T05:06:27.269Z,15.40
2022-08-09T05:09:00.754Z,15.40
2022-08-09T05:11:32.226Z,15.50
2022-08-09T05:14:05.774Z,15.60
2022-08-09T05:16:43.780Z,15.80
2022-08-09T05:19:24.372Z,15.90
2022-08-09T05:21:56.010Z,16.00
2022-08-09T05:24:24.761Z,16.20
2022-08-09T05:26:53.011Z,16.30
2022-08-09T05:29:21.735Z,16.40
2022-08-09T05:31:57.296Z,16.50
2022-08-09T05:34:30.830Z,16.60
2022-08-09T05:37:05.887Z,16.70
2022-08-09T05:39:43.867Z,16.90
2022-08-09T05:42:17.723Z,17.00
2022-08-09T05:44:50.884Z,17.00
2022-08-09T05:47:22.580Z,17.30
2022-08-09T05:50:26.050Z,17.60
2022-08-09T05:52:43.085Z,19.70
2022-08-09T05:55:20.288Z,20.50
2022-08-09T05:57:55.222Z,21.40
2022-08-09T06:00:25.929Z,22.70
2022-08-09T06:02:57.016Z,23.90
2022-08-09T06:05:30.925Z,25.50
2022-08-09T06:08:12.497Z,25.50
2022-08-09T06:10:39.443Z,24.90
2022-08-09T06:13:18.661Z,24.70
2022-08-09T06:15:51.725Z,26.10
2022-08-09T06:18:23.844Z,25.90
2022-08-09T06:20:54.815Z,26.20
2022-08-09T06:23:54.957Z,27.00
2022-08-09T06:26:11.773Z,26.80
2022-08-09T06:28:38.643Z,26.60
2022-08-09T06:31:10.380Z,26.30
2022-08-09T06:33:41.600Z,27.10
2022-08-09T06:36:11.805Z,27.70
2022-08-09T06:38:47.329Z,28.50
2022-08-09T06:41:18.957Z,28.10
2022-08-09T06:43:47.538Z,28.30
2022-08-09T06:46:39.855Z,27.00
2022-08-09T06:49:02.465Z,28.30
2022-08-09T06:51:29.260Z,27.90
2022-08-09T06:54:00.962Z,28.00
2022-08-09T06:56:31.037Z,27.70
2022-08-09T07:00:52.617Z,27.90
2022-08-09T07:01:54.133Z,27.70
2022-08-09T07:04:25.195Z,28.60
2022-08-09T07:06:59.924Z,28.10
2022-08-09T07:09:55.690Z,27.90
2022-08-09T07:12:18.053Z,28.60
2022-08-09T07:14:51.482Z,29.70
2022-08-09T07:17:20.324Z,30.10
2022-08-09T07:19:50.927Z,29.40
2022-08-09T07:22:34.213Z,29.70
2022-08-09T07:25:09.736Z,30.00
2022-08-09T07:27:42.381Z,29.80
2022-08-09T07:30:13.462Z,29.80
2022-08-09T07:32:41.669Z,29.80
2022-08-09T07:35:11.529Z,29.90
2022-08-09T07:37:45.740Z,30.00
2022-08-09T07:40:20.038Z,30.00
2022-08-09T07:42:59.317Z,30.60
2022-08-09T07:45:37.301Z,31.40
2022-08-09T07:48:28.585Z,30.00
2022-08-09T07:51:10.013Z,30.30
2022-08-09T07:54:06.993Z,30.40
2022-08-09T07:56:31.322Z,30.50
2022-08-09T07:59:01.568Z,30.40
2022-08-09T08:01:32.868Z,30.60
2022-08-09T08:04:00.304Z,30.30
2022-08-09T08:06:32.127Z,30.80
2022-08-09T08:09:04.970Z,31.70
2022-08-09T08:12:10.787Z,31.60
2022-08-09T08:14:23.994Z,31.10
2022-08-09T08:17:00.723Z,31.40
2022-08-09T08:19:35.026Z,31.10
2022-08-09T08:22:02.504Z,32.30
2022-08-09T08:24:35.270Z,31.70
2022-08-09T08:27:17.132Z,31.90
2022-08-09T08:29:48.505Z,31.70
2022-08-09T08:32:29.137Z,32.00
2022-08-09T08:34:59.734Z,31.40
2022-08-09T08:37:42.048Z,31.10
2022-08-09T08:40:17.286Z,30.80
2022-08-09T08:42:47.278Z,31.30
2022-08-09T08:45:16.599Z,30.90
2022-08-09T08:47:46.008Z,31.40
2022-08-09T08:50:18.089Z,31.30
2022-08-09T08:52:58.182Z,31.50
2022-08-09T08:55:27.639Z,31.90
2022-08-09T08:57:56.478Z,31.50
2022-08-09T09:00:27.761Z,32.60
2022-08-09T09:03:08.212Z,31.10
2022-08-09T09:06:00.998Z,31.60
2022-08-09T09:08:30.963Z,32.40
2022-08-09T09:11:02.785Z,29.70
2022-08-09T09:13:55.030Z,29.80
2022-08-09T09:16:30.677Z,30.80
2022-08-09T09:22:15.829Z,29.70
2022-08-09T09:26:02.220Z,28.40
2022-08-09T09:28:05.906Z,28.60
2022-08-09T09:30:47.306Z,27.60
2022-08-09T09:33:17.309Z,28.90
2022-08-09T09:36:20.554Z,29.50
2022-08-09T09:38:56.885Z,29.50
2022-08-09T09:41:27.957Z,29.90
2022-08-09T09:44:12.889Z,30.90
2022-08-09T09:46:50.382Z,29.90
2022-08-09T09:49:49.768Z,30.50
2022-08-09T09:52:33.552Z,29.30
2022-08-09T09:55:27.687Z,28.90
2022-08-09T09:58:17.159Z,29.60
2022-08-09T10:00:59.140Z,30.10
2022-08-09T10:03:57.337Z,30.50
2022-08-09T10:06:43.457Z,30.50
2022-08-09T10:09:23.322Z,30.60
2022-08-09T10:12:14.190Z,30.30
2022-08-09T10:14:49.933Z,30.90
2022-08-09T10:17:39.580Z,31.30
2022-08-09T10:20:27.617Z,30.80
2022-08-09T10:23:17.327Z,30.90
2022-08-09T10:26:07.374Z,31.00
2022-08-09T10:28:35.161Z,31.30
2022-08-09T10:34:10.231Z,29.70
2022-08-09T10:36:37.681Z,30.70
2022-08-09T10:39:05.948Z,30.20
2022-08-09T10:41:44.344Z,29.40
2022-08-09T10:44:11.295Z,30.30
2022-08-09T10:47:03.969Z,29.60
2022-08-09T10:49:59.136Z,30.10
2022-08-09T10:52:35.099Z,30.30
2022-08-09T10:55:25.076Z,29.90
2022-08-09T10:57:55.484Z,29.80
2022-08-09T11:00:35.331Z,30.20
2022-08-09T11:03:26.974Z,30.50
2022-08-09T11:06:15.286Z,30.70
2022-08-09T11:08:47.473Z,30.20
2022-08-09T11:11:19.277Z,30.10
2022-08-09T11:13:53.693Z,31.10
2022-08-09T11:16:36.064Z,30.80
2022-08-09T11:19:09.578Z,30.50
2022-08-09T11:22:10.442Z,29.10
2022-08-09T11:25:12.205Z,28.40
2022-08-09T11:28:03.112Z,29.00
2022-08-09T11:30:36.508Z,29.50
2022-08-09T11:33:19.201Z,29.10
2022-08-09T11:35:56.251Z,30.70
2022-08-09T11:38:33.304Z,30.50
2022-08-09T11:41:13.734Z,30.40
2022-08-09T11:43:48.652Z,30.70
2022-08-09T11:46:26.824Z,30.30
2022-08-09T11:49:05.435Z,30.50
2022-08-09T11:53:02.757Z,30.00
2022-08-09T11:55:34.993Z,29.20
2022-08-09T11:58:19.833Z,30.40
2022-08-09T12:01:01.662Z,30.90
2022-08-09T12:03:55.122Z,30.00
2022-08-09T12:06:24.837Z,30.80
2022-08-09T12:08:57.171Z,30.50
2022-08-09T12:11:27.449Z,30.40
2022-08-09T12:14:08.088Z,31.10
2022-08-09T12:16:41.617Z,30.60
2022-08-09T12:19:13.098Z,29.60
2022-08-09T12:21:50.325Z,30.50
2022-08-09T12:24:25.045Z,29.60
2022-08-09T12:28:59.124Z,30.20
2022-08-09T12:30:01.780Z,30.70
2022-08-09T12:32:41.125Z,30.60
2022-08-09T12:35:12.446Z,30.80
2022-08-09T12:37:51.707Z,29.70
2022-08-09T12:40:24.829Z,30.00
2022-08-09T12:42:52.346Z,30.60
2022-08-09T12:45:34.032Z,29.90
2022-08-09T12:48:07.804Z,29.90
2022-08-09T12:50:38.926Z,30.40
2022-08-09T12:53:34.703Z,30.20
2022-08-09T12:56:40.181Z,30.60
2022-08-09T12:59:21.238Z,30.00
2022-08-09T13:01:58.687Z,30.70
2022-08-09T13:04:36.757Z,29.80
2022-08-09T13:07:19.968Z,29.60
2022-08-09T13:10:05.344Z,30.10
2022-08-09T13:12:33.044Z,29.70
2022-08-09T13:15:09.057Z,29.80
2022-08-09T13:18:03.806Z,30.00
2022-08-09T13:20:37.510Z,29.70
2022-08-09T13:24:07.123Z,30.10
2022-08-09T13:26:10.274Z,29.40
2022-08-09T13:28:39.646Z,29.20
2022-08-09T13:32:15.711Z,29.30
2022-08-09T13:33:57.700Z,29.50
2022-08-09T13:36:41.364Z,29.20
2022-08-09T13:41:19.401Z,29.60
2022-08-09T13:42:05.122Z,29.20
2022-08-09T13:44:33.689Z,29.30
2022-08-09T13:47:25.234Z,29.50
2022-08-09T13:49:56.395Z,29.30
2022-08-09T13:52:28.821Z,29.00
2022-08-09T13:54:58.938Z,28.90
2022-08-09T13:57:40.156Z,29.00
2022-08-09T14:00:17.292Z,28.70
2022-08-09T14:03:04.609Z,28.60
2022-08-09T14:05:58.390Z,28.70
2022-08-09T14:08:28.257Z,28.90
2022-08-09T14:10:56.002Z,28.40
2022-08-09T14:13:27.854Z,28.50
2022-08-09T14:16:14.943Z,28.30
2022-08-09T14:18:49.822Z,27.70
2022-08-09T14:21:23.244Z,27.70
2022-08-09T14:23:55.215Z,27.70
2022-08-09T14:26:25.412Z,27.70
2022-08-09T14:28:59.538Z,27.50
2022-08-09T14:31:35.900Z,27.50
2022-08-09T14:34:14.177Z,27.30
2022-08-09T14:36:44.679Z,27.40
2022-08-09T14:39:11.621Z,27.40
2022-08-09T14:41:41.739Z,27.10
2022-08-09T14:44:11.109Z,27.20
2022-08-09T14:47:02.270Z,27.00
2022-08-09T14:49:26.696Z,26.70
2022-08-09T14:51:58.599Z,26.60
2022-08-09T14:54:28.267Z,26.60
2022-08-09T14:56:58.658Z,26.90
2022-08-09T14:59:28.583Z,26.80
2022-08-09T15:01:56.016Z,26.70
2022-08-09T15:04:23.496Z,26.50
2022-08-09T15:06:51.618Z,26.60
2022-08-09T15:10:03.352Z,26.50
2022-08-09T15:12:08.267Z,26.60
2022-08-09T15:14:38.322Z,26.90
2022-08-09T15:17:09.655Z,27.00
2022-08-09T15:19:59.747Z,27.20
2022-08-09T15:22:26.101Z,27.20
2022-08-09T15:24:53.938Z,27.10
2022-08-09T15:27:21.321Z,27.10
2022-08-09T15:30:58.279Z,26.80
2022-08-09T15:32:35.856Z,27.00
2022-08-09T15:35:18.505Z,26.70
2022-08-09T15:37:56.242Z,26.50
2022-08-09T15:40:37.137Z,26.60
2022-08-09T15:43:03.967Z,26.70
2022-08-09T15:45:31.223Z,26.60
2022-08-09T15:48:28.539Z,26.30
2022-08-09T15:50:56.805Z,26.50
2022-08-09T15:54:03.374Z,26.50
2022-08-09T15:56:21.348Z,26.20
2022-08-09T15:58:55.701Z,26.20
2022-08-09T16:01:22.648Z,26.30
2022-08-09T16:03:51.005Z,26.40
2022-08-09T16:06:35.462Z,26.50
2022-08-09T16:09:05.539Z,26.30
2022-08-09T16:11:33.126Z,26.10
2022-08-09T16:14:06.913Z,26.10
2022-08-09T16:16:37.367Z,26.10
2022-08-09T16:19:08.604Z,26.40
2022-08-09T16:21:40.130Z,26.50
2022-08-09T16:24:20.130Z,26.50
2022-08-09T16:26:56.745Z,26.50
2022-08-09T16:29:37.465Z,26.40
2022-08-09T16:32:33.246Z,26.60
2022-08-09T16:34:58.284Z,26.20
2022-08-09T16:37:55.380Z,26.10
2022-08-09T16:40:29.610Z,26.30
2022-08-09T16:43:02.402Z,26.20
2022-08-09T16:45:29.441Z,26.00
2022-08-09T16:48:41.609Z,25.90
2022-08-09T16:50:58.742Z,25.80
2022-08-09T16:53:32.197Z,25.80
2022-08-09T16:56:05.968Z,25.70
2022-08-09T16:58:36.094Z,25.70
2022-08-09T17:01:04.260Z,25.60
2022-08-09T17:03:31.378Z,25.70
2022-08-09T17:06:03.508Z,25.70
2022-08-09T17:09:01.432Z,25.70
2022-08-09T17:11:41.795Z,25.80
2022-08-09T17:14:25.586Z,25.80
2022-08-09T17:16:56.764Z,25.80
2022-08-09T17:19:27.822Z,25.80
2022-08-09T17:22:14.826Z,25.90
2022-08-09T17:24:47.550Z,25.90
2022-08-09T17:27:21.565Z,25.90
2022-08-09T17:29:53.420Z,25.90
2022-08-09T17:32:35.082Z,25.80
2022-08-09T17:35:11.585Z,25.70
2022-08-09T17:38:11.125Z,25.50
2022-08-09T17:40:28.714Z,25.40
2022-08-09T17:43:03.244Z,25.30
2022-08-09T17:46:03.612Z,25.20
2022-08-09T17:48:29.470Z,25.10
2022-08-09T17:50:59.377Z,24.90
2022-08-09T17:53:43.484Z,24.80
2022-08-09T17:56:14.912Z,24.80
2022-08-09T17:58:45.335Z,24.70
2022-08-09T18:01:18.376Z,24.60
2022-08-09T18:03:54.558Z,24.60
2022-08-09T18:06:31.698Z,24.50
2022-08-09T18:09:05.429Z,24.40
2022-08-09T18:12:04.973Z,24.30
2022-08-09T18:14:22.047Z,24.20
2022-08-09T18:16:52.936Z,24.10
2022-08-09T18:20:55.246Z,24.10
2022-08-09T18:22:13.275Z,24.00
2022-08-09T18:24:43.863Z,23.90
2022-08-09T18:27:15.877Z,23.90
2022-08-09T18:30:40.356Z,23.80
2022-08-09T18:32:54.672Z,23.70
2022-08-09T18:35:53.206Z,23.60
2022-08-09T18:38:09.654Z,23.60
2022-08-09T18:40:40.213Z,23.50
2022-08-09T18:43:08.682Z,23.40
2022-08-09T18:46:49.541Z,23.30
2022-08-09T18:48:22.763Z,23.20
2022-08-09T18:50:57.252Z,23.10
2022-08-09T18:53:26.016Z,23.00
2022-08-09T18:56:05.246Z,22.90
2022-08-09T18:58:33.246Z,22.90
2022-08-09T19:01:00.741Z,22.80
2022-08-09T19:03:28.729Z,22.70
2022-08-09T19:06:03.481Z,22.60
2022-08-09T19:08:32.012Z,22.50
2022-08-09T19:11:01.689Z,22.50
2022-08-09T19:13:49.961Z,22.40
2022-08-09T19:16:20.922Z,22.40
2022-08-09T19:18:48.622Z,22.30
2022-08-09T19:21:16.721Z,22.20
2022-08-09T19:24:36.020Z,22.10
2022-08-09T19:26:35.908Z,22.10
2022-08-09T19:29:17.988Z,21.90
2022-08-09T19:31:49.457Z,21.90
2022-08-09T19:34:22.892Z,21.70
2022-08-09T19:36:55.838Z,21.70
2022-08-09T19:39:29.135Z,21.70
2022-08-09T19:42:15.275Z,21.60
2022-08-09T19:44:50.503Z,21.60
2022-08-09T19:47:23.548Z,21.50
2022-08-09T19:50:08.424Z,21.50
2022-08-09T19:52:38.101Z,21.30
2022-08-09T19:55:17.593Z,21.30
2022-08-09T19:57:46.438Z,21.30
2022-08-09T20:00:16.161Z,21.20
2022-08-09T20:04:10.707Z,21.20
2022-08-09T20:05:45.939Z,21.10
2022-08-09T20:08:16.221Z,21.10
2022-08-09T20:11:02.554Z,21.00
2022-08-09T20:13:36.831Z,21.00
2022-08-09T20:16:33.141Z,21.00
2022-08-09T20:19:42.861Z,21.00
2022-08-09T20:21:56.355Z,20.90
2022-08-09T20:24:29.491Z,20.90
2022-08-09T20:27:01.803Z,20.80
2022-08-09T20:29:32.653Z,20.70
2022-08-09T20:32:29.310Z,20.70
2022-08-09T20:34:59.604Z,20.60
2022-08-09T20:38:08.701Z,20.60
2022-08-09T20:40:24.785Z,20.50
2022-08-09T20:43:00.421Z,20.40
2022-08-09T20:46:00.839Z,20.30
2022-08-09T20:48:31.482Z,20.30
2022-08-09T20:50:59.821Z,20.20
2022-08-09T20:53:35.838Z,20.20
2022-08-09T20:56:21.222Z,20.20
2022-08-09T20:58:50.681Z,20.10
2022-08-09T21:01:34.653Z,20.10
2022-08-09T21:05:55.151Z,20.00
2022-08-09T21:06:55.423Z,19.90
2022-08-09T21:09:32.776Z,19.80
2022-08-09T21:14:43.229Z,19.70
2022-08-09T21:18:21.642Z,19.60
2022-08-09T21:20:05.370Z,19.50
2022-08-09T21:22:53.879Z,19.50
2022-08-09T21:25:44.380Z,19.40
2022-08-09T21:28:33.552Z,19.40
2022-08-09T21:31:18.003Z,19.40
2022-08-09T21:33:52.740Z,19.30
2022-08-09T21:36:28.140Z,19.20
2022-08-09T21:38:58.585Z,19.10
2022-08-09T21:42:04.668Z,19.10
2022-08-09T21:44:33.068Z,19.20
2022-08-09T21:47:07.775Z,19.10
2022-08-09T21:49:40.330Z,19.10
2022-08-09T21:52:17.316Z,19.00
2022-08-09T21:54:50.841Z,19.00
2022-08-09T21:57:38.229Z,19.00
2022-08-09T22:00:26.839Z,18.90
2022-08-09T22:03:04.448Z,18.90
2022-08-09T22:05:36.084Z,18.80
2022-08-09T22:08:06.537Z,18.80
2022-08-09T22:10:33.500Z,18.80
2022-08-09T22:13:07.597Z,18.70
2022-08-09T22:15:39.201Z,18.70
2022-08-09T22:18:08.281Z,18.70
2022-08-09T22:20:40.001Z,18.60
2022-08-09T22:23:10.471Z,18.60
2022-08-09T22:26:06.263Z,18.50
2022-08-09T22:28:32.577Z,18.50
2022-08-09T22:31:00.698Z,18.40
2022-08-09T22:33:37.378Z,18.30
2022-08-09T22:36:09.759Z,18.30
2022-08-09T22:38:36.653Z,18.30
2022-08-09T22:41:04.444Z,18.20
2022-08-09T22:44:01.250Z,18.20
2022-08-09T22:48:14.398Z,18.10
2022-08-09T22:49:10.216Z,18.10
2022-08-09T22:51:39.508Z,18.00
2022-08-09T22:54:21.422Z,17.90
2022-08-09T22:56:50.756Z,17.80
2022-08-09T22:59:57.960Z,17.80
2022-08-09T23:02:10.471Z,17.80
2022-08-09T23:04:42.462Z,17.70
2022-08-09T23:07:31.022Z,17.70
2022-08-09T23:10:14.726Z,17.70
2022-08-09T23:12:41.505Z,17.60
2022-08-09T23:15:08.644Z,17.60
2022-08-09T23:17:35.972Z,17.50
2022-08-09T23:20:07.906Z,17.50
2022-08-09T23:22:35.825Z,17.40
2022-08-09T23:25:04.650Z,17.40
2022-08-09T23:27:32.421Z,17.30
2022-08-09T23:29:59.459Z,17.30
2022-08-09T23:32:26.266Z,17.20
2022-08-09T23:34:53.136Z,17.20
2022-08-09T23:37:22.855Z,17.20
2022-08-09T23:39:52.634Z,17.10
2022-08-09T23:42:19.460Z,17.10
2022-08-09T23:44:46.227Z,17.00
2022-08-09T23:47:13.044Z,17.00
2022-08-09T23:49:39.956Z,17.00
2022-08-09T23:52:06.865Z,17.00
2022-08-09T23:54:33.664Z,16.90
2022-08-09T23:57:02.683Z,16.90
2022-08-09T23:59:51.161Z,16.80
